sensor_id;sensor_type;location;lat;lon;timestamp;pressure;altitude;pressure_sealevel;temperature;humidity
19590;BME280;12231;42.782;23.388;2022-08-19T00:01:15;95258.91;;;22.79;71.50
19590;BME280;12231;42.782;23.388;2022-08-19T00:03:41;95263.41;;;23.01;71.33
19590;BME280;12231;42.782;23.388;2022-08-19T00:06:06;95268.72;;;23.16;70.38
19590;BME280;12231;42.782;23.388;2022-08-19T00:08:32;95276.69;;;23.30;69.76
19590;BME280;12231;42.782;23.388;2022-08-19T00:10:57;95283.31;;;23.41;69.23
19590;BME280;12231;42.782;23.388;2022-08-19T00:13:23;95274.91;;;23.45;68.80
19590;BME280;12231;42.782;23.388;2022-08-19T00:15:48;95279.13;;;23.54;68.80
19590;BME280;12231;42.782;23.388;2022-08-19T00:18:13;95279.88;;;23.63;68.39
19590;BME280;12231;42.782;23.388;2022-08-19T00:20:39;95274.72;;;23.69;68.10
19590;BME280;12231;42.782;23.388;2022-08-19T00:23:06;95270.06;;;23.71;67.73
19590;BME280;12231;42.782;23.388;2022-08-19T00:25:31;95270.34;;;23.76;67.68
19590;BME280;12231;42.782;23.388;2022-08-19T00:27:57;95274.16;;;23.74;67.28
19590;BME280;12231;42.782;23.388;2022-08-19T00:30:24;95277.66;;;23.66;67.71
19590;BME280;12231;42.782;23.388;2022-08-19T00:32:52;95275.97;;;23.73;67.91
19590;BME280;12231;42.782;23.388;2022-08-19T00:35:19;95279.06;;;23.77;67.40
19590;BME280;12231;42.782;23.388;2022-08-19T00:37:44;95276.16;;;23.72;66.88
19590;BME280;12231;42.782;23.388;2022-08-19T00:40:11;95279.22;;;23.61;67.66
19590;BME280;12231;42.782;23.388;2022-08-19T00:42:37;95273.44;;;23.43;67.98
19590;BME280;12231;42.782;23.388;2022-08-19T00:45:10;95269.22;;;23.56;67.84
19590;BME280;12231;42.782;23.388;2022-08-19T00:47:36;95267.50;;;23.63;67.56
19590;BME280;12231;42.782;23.388;2022-08-19T00:50:02;95265.63;;;23.72;67.43
19590;BME280;12231;42.782;23.388;2022-08-19T00:52:32;95266.44;;;23.72;67.03
19590;BME280;12231;42.782;23.388;2022-08-19T00:55:00;95258.19;;;23.75;67.56
19590;BME280;12231;42.782;23.388;2022-08-19T00:57:34;95267.25;;;23.73;67.37
19590;BME280;12231;42.782;23.388;2022-08-19T01:00:03;95257.91;;;23.70;67.56
19590;BME280;12231;42.782;23.388;2022-08-19T01:02:31;95267.25;;;23.73;67.82
19590;BME280;12231;42.782;23.388;2022-08-19T01:04:57;95279.31;;;23.67;67.73
19590;BME280;12231;42.782;23.388;2022-08-19T01:07:24;95268.78;;;23.67;67.71
19590;BME280;12231;42.782;23.388;2022-08-19T01:09:50;95269.44;;;23.69;66.81
19590;BME280;12231;42.782;23.388;2022-08-19T01:12:16;95263.25;;;23.62;67.08
19590;BME280;12231;42.782;23.388;2022-08-19T01:14:42;95263.28;;;23.40;66.75
19590;BME280;12231;42.782;23.388;2022-08-19T01:17:09;95258.19;;;23.16;68.18
19590;BME280;12231;42.782;23.388;2022-08-19T01:19:40;95259.47;;;23.20;67.66
19590;BME280;12231;42.782;23.388;2022-08-19T01:22:14;95259.81;;;23.17;68.34
19590;BME280;12231;42.782;23.388;2022-08-19T01:24:41;95270.63;;;22.99;68.27
19590;BME280;12231;42.782;23.388;2022-08-19T01:27:07;95275.53;;;23.02;69.02
19590;BME280;12231;42.782;23.388;2022-08-19T01:29:33;95271.66;;;22.90;69.42
19590;BME280;12231;42.782;23.388;2022-08-19T01:32:00;95266.69;;;22.95;69.36
19590;BME280;12231;42.782;23.388;2022-08-19T01:34:26;95264.06;;;22.95;69.51
19590;BME280;12231;42.782;23.388;2022-08-19T01:36:51;95262.81;;;22.91;69.07
19590;BME280;12231;42.782;23.388;2022-08-19T01:39:23;95258.25;;;23.08;69.02
19590;BME280;12231;42.782;23.388;2022-08-19T01:41:49;95260.47;;;23.19;68.37
19590;BME280;12231;42.782;23.388;2022-08-19T01:44:15;95267.66;;;23.25;68.51
19590;BME280;12231;42.782;23.388;2022-08-19T01:46:42;95276.38;;;23.25;68.05
19590;BME280;12231;42.782;23.388;2022-08-19T01:49:08;95278.75;;;23.12;68.45
19590;BME280;12231;42.782;23.388;2022-08-19T01:51:34;95271.63;;;23.21;68.42
19590;BME280;12231;42.782;23.388;2022-08-19T01:54:00;95272.44;;;23.21;68.69
19590;BME280;12231;42.782;23.388;2022-08-19T01:56:26;95279.91;;;23.09;68.39
19590;BME280;12231;42.782;23.388;2022-08-19T01:58:55;95274.22;;;22.75;69.02
19590;BME280;12231;42.782;23.388;2022-08-19T02:01:23;95279.47;;;22.37;70.19
19590;BME280;12231;42.782;23.388;2022-08-19T02:03:48;95278.00;;;21.88;72.64
19590;BME280;12231;42.782;23.388;2022-08-19T02:06:14;95279.00;;;21.62;73.89
19590;BME280;12231;42.782;23.388;2022-08-19T02:08:40;95277.50;;;21.60;76.16
19590;BME280;12231;42.782;23.388;2022-08-19T02:11:06;95282.28;;;21.81;75.82
19590;BME280;12231;42.782;23.388;2022-08-19T02:13:33;95280.91;;;22.01;75.62
19590;BME280;12231;42.782;23.388;2022-08-19T02:15:59;95284.94;;;22.27;74.28
19590;BME280;12231;42.782;23.388;2022-08-19T02:18:25;95282.41;;;22.42;73.50
19590;BME280;12231;42.782;23.388;2022-08-19T02:20:51;95297.03;;;22.52;72.53
19590;BME280;12231;42.782;23.388;2022-08-19T02:23:17;95290.09;;;22.51;71.92
19590;BME280;12231;42.782;23.388;2022-08-19T02:25:45;95291.78;;;22.52;72.04
19590;BME280;12231;42.782;23.388;2022-08-19T02:28:11;95279.69;;;22.66;71.28
19590;BME280;12231;42.782;23.388;2022-08-19T02:30:37;95281.59;;;22.80;70.74
19590;BME280;12231;42.782;23.388;2022-08-19T02:33:04;95283.84;;;22.91;70.41
19590;BME280;12231;42.782;23.388;2022-08-19T02:35:30;95282.31;;;22.96;69.86
19590;BME280;12231;42.782;23.388;2022-08-19T02:37:56;95274.88;;;23.00;69.84
19590;BME280;12231;42.782;23.388;2022-08-19T02:40:40;95274.81;;;22.85;69.69
19590;BME280;12231;42.782;23.388;2022-08-19T02:43:07;95275.16;;;22.82;69.76
19590;BME280;12231;42.782;23.388;2022-08-19T02:45:34;95276.50;;;22.78;70.05
19590;BME280;12231;42.782;23.388;2022-08-19T02:48:01;95279.28;;;22.77;69.41
19590;BME280;12231;42.782;23.388;2022-08-19T02:50:27;95277.84;;;22.74;69.46
19590;BME280;12231;42.782;23.388;2022-08-19T02:52:52;95279.94;;;22.79;69.39
19590;BME280;12231;42.782;23.388;2022-08-19T02:55:17;95280.78;;;22.79;69.92
19590;BME280;12231;42.782;23.388;2022-08-19T02:57:43;95285.50;;;22.84;69.28
19590;BME280;12231;42.782;23.388;2022-08-19T03:00:09;95281.25;;;22.83;68.91
19590;BME280;12231;42.782;23.388;2022-08-19T03:02:38;95273.38;;;22.83;68.97
19590;BME280;12231;42.782;23.388;2022-08-19T03:05:05;95279.28;;;22.77;68.87
19590;BME280;12231;42.782;23.388;2022-08-19T03:07:31;95280.13;;;22.77;69.01
19590;BME280;12231;42.782;23.388;2022-08-19T03:09:57;95280.44;;;22.82;68.75
19590;BME280;12231;42.782;23.388;2022-08-19T03:12:23;95280.47;;;22.74;68.47
19590;BME280;12231;42.782;23.388;2022-08-19T03:14:48;95276.28;;;22.65;69.18
19590;BME280;12231;42.782;23.388;2022-08-19T03:17:14;95271.00;;;22.65;69.44
19590;BME280;12231;42.782;23.388;2022-08-19T03:19:39;95276.41;;;22.64;69.97
19590;BME280;12231;42.782;23.388;2022-08-19T03:22:05;95275.00;;;22.53;69.64
19590;BME280;12231;42.782;23.388;2022-08-19T03:24:31;95279.28;;;22.00;71.10
19590;BME280;12231;42.782;23.388;2022-08-19T03:26:57;95274.09;;;21.51;73.44
19590;BME280;12231;42.782;23.388;2022-08-19T03:29:25;95285.25;;;21.13;75.83
19590;BME280;12231;42.782;23.388;2022-08-19T03:31:52;95283.44;;;21.22;76.15
19590;BME280;12231;42.782;23.388;2022-08-19T03:34:22;95290.97;;;21.41;75.84
19590;BME280;12231;42.782;23.388;2022-08-19T03:36:51;95292.28;;;21.61;74.63
19590;BME280;12231;42.782;23.388;2022-08-19T03:39:17;95293.94;;;21.78;73.99
19590;BME280;12231;42.782;23.388;2022-08-19T03:41:44;95295.72;;;21.86;75.32
19590;BME280;12231;42.782;23.388;2022-08-19T03:44:10;95302.94;;;21.75;76.02
19590;BME280;12231;42.782;23.388;2022-08-19T03:46:36;95305.16;;;22.11;74.17
19590;BME280;12231;42.782;23.388;2022-08-19T03:49:03;95312.78;;;22.36;72.89
19590;BME280;12231;42.782;23.388;2022-08-19T03:51:35;95317.53;;;22.49;71.89
19590;BME280;12231;42.782;23.388;2022-08-19T03:54:04;95321.63;;;22.51;72.60
19590;BME280;12231;42.782;23.388;2022-08-19T03:56:30;95319.91;;;22.74;71.66
19590;BME280;12231;42.782;23.388;2022-08-19T03:58:57;95320.00;;;22.89;71.23
19590;BME280;12231;42.782;23.388;2022-08-19T04:01:26;95326.22;;;22.96;70.76
19590;BME280;12231;42.782;23.388;2022-08-19T04:03:53;95318.50;;;22.94;70.88
19590;BME280;12231;42.782;23.388;2022-08-19T04:06:31;95330.22;;;23.06;70.49
19590;BME280;12231;42.782;23.388;2022-08-19T04:08:59;95330.47;;;23.20;69.77
19590;BME280;12231;42.782;23.388;2022-08-19T04:11:29;95333.69;;;23.38;69.24
19590;BME280;12231;42.782;23.388;2022-08-19T04:13:55;95334.41;;;23.69;67.67
19590;BME280;12231;42.782;23.388;2022-08-19T04:16:24;95329.84;;;23.85;66.48
19590;BME280;12231;42.782;23.388;2022-08-19T04:18:49;95332.75;;;23.90;66.45
19590;BME280;12231;42.782;23.388;2022-08-19T04:21:20;95329.47;;;23.88;65.82
19590;BME280;12231;42.782;23.388;2022-08-19T04:23:47;95331.63;;;24.22;nan
19590;BME280;12231;42.782;23.388;2022-08-19T04:26:18;95336.88;;;24.66;65.67
19590;BME280;12231;42.782;23.388;2022-08-19T04:28:44;95331.13;;;25.06;64.54
19590;BME280;12231;42.782;23.388;2022-08-19T04:31:16;95329.56;;;25.47;61.76
19590;BME280;12231;42.782;23.388;2022-08-19T04:33:42;95329.38;;;25.48;60.75
19590;BME280;12231;42.782;23.388;2022-08-19T04:36:15;95318.88;;;25.55;60.07
19590;BME280;12231;42.782;23.388;2022-08-19T04:38:41;95330.53;;;26.09;58.98
19590;BME280;12231;42.782;23.388;2022-08-19T04:41:06;95320.59;;;26.45;58.05
19590;BME280;12231;42.782;23.388;2022-08-19T04:43:50;95319.63;;;26.59;57.09
19590;BME280;12231;42.782;23.388;2022-08-19T04:46:16;95322.63;;;26.77;57.20
19590;BME280;12231;42.782;23.388;2022-08-19T04:48:42;95326.81;;;27.06;56.41
19590;BME280;12231;42.782;23.388;2022-08-19T04:51:10;95323.34;;;27.06;56.52
19590;BME280;12231;42.782;23.388;2022-08-19T04:53:39;95318.78;;;27.40;55.71
19590;BME280;12231;42.782;23.388;2022-08-19T04:56:08;95311.09;;;27.91;54.43
19590;BME280;12231;42.782;23.388;2022-08-19T04:58:35;95323.09;;;28.33;53.32
19590;BME280;12231;42.782;23.388;2022-08-19T05:01:01;95322.22;;;28.65;52.70
19590;BME280;12231;42.782;23.388;2022-08-19T05:03:27;95328.00;;;29.06;51.64
19590;BME280;12231;42.782;23.388;2022-08-19T05:05:56;95326.31;;;29.55;50.32
19590;BME280;12231;42.782;23.388;2022-08-19T05:08:21;95329.13;;;29.98;49.24
19590;BME280;12231;42.782;23.388;2022-08-19T05:10:48;95331.75;;;30.29;48.16
19590;BME280;12231;42.782;23.388;2022-08-19T05:13:15;95335.69;;;30.63;47.19
19590;BME280;12231;42.782;23.388;2022-08-19T05:15:42;95336.78;;;30.98;46.60
19590;BME280;12231;42.782;23.388;2022-08-19T05:18:07;95333.72;;;31.60;45.45
19590;BME280;12231;42.782;23.388;2022-08-19T05:20:52;95333.06;;;32.29;43.01
19590;BME280;12231;42.782;23.388;2022-08-19T05:23:36;95335.03;;;32.80;43.08
19590;BME280;12231;42.782;23.388;2022-08-19T05:26:01;95337.84;;;32.62;42.10
19590;BME280;12231;42.782;23.388;2022-08-19T05:28:27;95332.38;;;32.68;42.35
19590;BME280;12231;42.782;23.388;2022-08-19T05:30:52;95332.75;;;33.23;42.07
19590;BME280;12231;42.782;23.388;2022-08-19T05:33:21;95332.56;;;33.53;40.83
19590;BME280;12231;42.782;23.388;2022-08-19T05:35:46;95332.56;;;33.53;40.68
19590;BME280;12231;42.782;23.388;2022-08-19T05:38:13;95329.03;;;34.08;39.95
19590;BME280;12231;42.782;23.388;2022-08-19T05:40:39;95319.94;;;34.59;39.07
19590;BME280;12231;42.782;23.388;2022-08-19T05:43:06;95325.41;;;35.29;38.54
19590;BME280;12231;42.782;23.388;2022-08-19T05:45:32;95323.34;;;35.57;37.40
19590;BME280;12231;42.782;23.388;2022-08-19T05:47:58;95333.63;;;35.39;37.37
19590;BME280;12231;42.782;23.388;2022-08-19T05:50:24;95327.16;;;35.88;36.63
19590;BME280;12231;42.782;23.388;2022-08-19T05:52:53;95327.63;;;36.12;35.88
19590;BME280;12231;42.782;23.388;2022-08-19T05:55:18;95326.88;;;36.48;35.09
19590;BME280;12231;42.782;23.388;2022-08-19T05:57:48;95325.28;;;36.88;34.34
19590;BME280;12231;42.782;23.388;2022-08-19T06:00:13;95326.31;;;37.34;33.71
19590;BME280;12231;42.782;23.388;2022-08-19T06:02:39;95328.13;;;36.77;34.49
19590;BME280;12231;42.782;23.388;2022-08-19T06:05:05;95330.09;;;37.43;33.04
19590;BME280;12231;42.782;23.388;2022-08-19T06:07:38;95323.78;;;37.94;32.94
19590;BME280;12231;42.782;23.388;2022-08-19T06:10:06;95331.16;;;35.85;36.24
19590;BME280;12231;42.782;23.388;2022-08-19T06:12:33;95336.03;;;36.88;34.05
19590;BME280;12231;42.782;23.388;2022-08-19T06:15:10;95339.22;;;37.37;33.63
19590;BME280;12231;42.782;23.388;2022-08-19T06:17:36;95337.03;;;36.82;34.22
19590;BME280;12231;42.782;23.388;2022-08-19T06:20:10;95339.94;;;35.33;37.52
19590;BME280;12231;42.782;23.388;2022-08-19T06:22:39;95344.09;;;36.88;34.67
19590;BME280;12231;42.782;23.388;2022-08-19T06:25:05;95341.81;;;37.94;32.87
19590;BME280;12231;42.782;23.388;2022-08-19T06:27:31;95344.78;;;37.21;33.79
19590;BME280;12231;42.782;23.388;2022-08-19T06:29:58;95338.22;;;37.63;32.80
19590;BME280;12231;42.782;23.388;2022-08-19T06:32:23;95337.00;;;38.66;31.77
19590;BME280;12231;42.782;23.388;2022-08-19T06:34:49;95331.91;;;39.43;30.74
19590;BME280;12231;42.782;23.388;2022-08-19T06:37:14;95335.97;;;39.95;29.52
19590;BME280;12231;42.782;23.388;2022-08-19T06:39:43;95322.59;;;39.75;29.28
19590;BME280;12231;42.782;23.388;2022-08-19T06:42:10;95330.72;;;40.47;28.84
19590;BME280;12231;42.782;23.388;2022-08-19T06:44:40;95332.72;;;39.49;29.48
19590;BME280;12231;42.782;23.388;2022-08-19T06:47:08;95331.16;;;39.92;28.58
19590;BME280;12231;42.782;23.388;2022-08-19T06:49:35;95339.41;;;38.78;30.39
19590;BME280;12231;42.782;23.388;2022-08-19T06:52:01;95338.34;;;38.33;30.54
19590;BME280;12231;42.782;23.388;2022-08-19T06:54:27;95342.78;;;37.58;31.66
19590;BME280;12231;42.782;23.388;2022-08-19T06:57:00;95337.25;;;38.80;30.64
19590;BME280;12231;42.782;23.388;2022-08-19T06:59:30;95330.97;;;39.14;29.77
19590;BME280;12231;42.782;23.388;2022-08-19T07:01:56;95323.97;;;39.67;29.88
19590;BME280;12231;42.782;23.388;2022-08-19T07:04:27;95330.34;;;40.30;28.23
19590;BME280;12231;42.782;23.388;2022-08-19T07:07:02;95343.94;;;37.87;30.44
19590;BME280;12231;42.782;23.388;2022-08-19T07:09:29;95338.16;;;39.98;28.98
19590;BME280;12231;42.782;23.388;2022-08-19T07:11:55;95331.50;;;40.19;28.80
19590;BME280;12231;42.782;23.388;2022-08-19T07:14:24;95338.53;;;41.34;26.86
19590;BME280;12231;42.782;23.388;2022-08-19T07:16:51;95328.28;;;42.10;25.99
19590;BME280;12231;42.782;23.388;2022-08-19T07:19:17;95339.59;;;41.33;27.24
19590;BME280;12231;42.782;23.388;2022-08-19T07:21:43;95329.41;;;41.02;27.14
19590;BME280;12231;42.782;23.388;2022-08-19T07:24:09;95329.16;;;41.45;27.19
19590;BME280;12231;42.782;23.388;2022-08-19T07:26:39;95330.09;;;42.15;25.95
19590;BME280;12231;42.782;23.388;2022-08-19T07:29:06;95328.16;;;42.98;25.02
19590;BME280;12231;42.782;23.388;2022-08-19T07:31:32;95336.25;;;41.41;27.50
19590;BME280;12231;42.782;23.388;2022-08-19T07:34:03;95320.06;;;42.16;25.78
19590;BME280;12231;42.782;23.388;2022-08-19T07:36:32;95323.13;;;41.53;26.03
19590;BME280;12231;42.782;23.388;2022-08-19T07:38:59;95315.31;;;42.07;26.26
19590;BME280;12231;42.782;23.388;2022-08-19T07:41:27;95312.69;;;43.12;25.14
19590;BME280;12231;42.782;23.388;2022-08-19T07:43:54;95316.69;;;41.26;25.51
19590;BME280;12231;42.782;23.388;2022-08-19T07:46:20;95321.09;;;40.36;27.92
19590;BME280;12231;42.782;23.388;2022-08-19T07:48:47;95320.19;;;42.43;24.74
19590;BME280;12231;42.782;23.388;2022-08-19T07:51:18;95321.66;;;43.13;24.42
19590;BME280;12231;42.782;23.388;2022-08-19T07:53:46;95308.97;;;43.49;23.95
19590;BME280;12231;42.782;23.388;2022-08-19T07:56:12;95318.59;;;42.42;24.85
19590;BME280;12231;42.782;23.388;2022-08-19T07:58:42;95318.41;;;40.36;26.75
19590;BME280;12231;42.782;23.388;2022-08-19T08:01:10;95323.84;;;39.38;28.31
19590;BME280;12231;42.782;23.388;2022-08-19T08:03:36;95321.88;;;39.54;29.42
19590;BME280;12231;42.782;23.388;2022-08-19T08:06:21;95311.31;;;42.37;25.87
19590;BME280;12231;42.782;23.388;2022-08-19T08:09:05;95315.22;;;43.99;23.42
19590;BME280;12231;42.782;23.388;2022-08-19T08:11:43;95314.91;;;45.28;22.59
19590;BME280;12231;42.782;23.388;2022-08-19T08:14:19;95314.75;;;45.98;22.48
19590;BME280;12231;42.782;23.388;2022-08-19T08:16:45;95310.25;;;46.44;22.03
19590;BME280;12231;42.782;23.388;2022-08-19T08:19:12;95307.94;;;45.44;22.31
19590;BME280;12231;42.782;23.388;2022-08-19T08:21:40;95298.78;;;44.26;23.87
19590;BME280;12231;42.782;23.388;2022-08-19T08:24:05;95299.81;;;44.60;23.11
19590;BME280;12231;42.782;23.388;2022-08-19T08:26:31;95299.78;;;42.91;25.00
19590;BME280;12231;42.782;23.388;2022-08-19T08:28:56;95298.13;;;43.85;23.86
19590;BME280;12231;42.782;23.388;2022-08-19T08:31:22;95299.31;;;43.57;23.76
19590;BME280;12231;42.782;23.388;2022-08-19T08:33:48;95296.69;;;43.38;23.16
19590;BME280;12231;42.782;23.388;2022-08-19T08:36:14;95286.03;;;44.57;22.57
19590;BME280;12231;42.782;23.388;2022-08-19T08:38:41;95283.63;;;44.86;22.19
19590;BME280;12231;42.782;23.388;2022-08-19T08:41:26;95283.72;;;45.59;21.79
19590;BME280;12231;42.782;23.388;2022-08-19T08:43:54;95287.97;;;42.55;25.44
19590;BME280;12231;42.782;23.388;2022-08-19T08:46:35;95276.28;;;45.34;22.89
19590;BME280;12231;42.782;23.388;2022-08-19T08:51:44;95279.94;;;45.21;22.74
19590;BME280;12231;42.782;23.388;2022-08-19T08:54:15;95265.44;;;44.65;22.69
19590;BME280;12231;42.782;23.388;2022-08-19T08:56:44;95274.25;;;44.39;23.78
19590;BME280;12231;42.782;23.388;2022-08-19T08:59:30;95269.50;;;43.87;24.59
19590;BME280;12231;42.782;23.388;2022-08-19T09:01:57;95262.97;;;44.54;23.42
19590;BME280;12231;42.782;23.388;2022-08-19T09:04:23;95266.06;;;43.46;22.77
19590;BME280;12231;42.782;23.388;2022-08-19T09:09:34;95258.81;;;45.35;22.62
19590;BME280;12231;42.782;23.388;2022-08-19T09:12:20;95249.63;;;44.44;23.39
19590;BME280;12231;42.782;23.388;2022-08-19T09:14:52;95252.91;;;43.53;24.84
19590;BME280;12231;42.782;23.388;2022-08-19T09:17:24;95249.31;;;45.16;21.98
19590;BME280;12231;42.782;23.388;2022-08-19T09:20:21;95240.69;;;43.64;24.81
19590;BME280;12231;42.782;23.388;2022-08-19T09:22:47;95241.16;;;45.16;23.02
19590;BME280;12231;42.782;23.388;2022-08-19T09:25:17;95235.13;;;46.38;21.54
19590;BME280;12231;42.782;23.388;2022-08-19T09:27:43;95232.41;;;44.57;22.08
19590;BME280;12231;42.782;23.388;2022-08-19T09:30:16;95232.47;;;43.91;23.02
19590;BME280;12231;42.782;23.388;2022-08-19T09:32:42;95230.72;;;42.83;25.02
19590;BME280;12231;42.782;23.388;2022-08-19T09:35:09;95224.69;;;44.51;22.76
19590;BME280;12231;42.782;23.388;2022-08-19T09:37:35;95223.88;;;44.81;23.34
19590;BME280;12231;42.782;23.388;2022-08-19T09:40:02;95219.75;;;44.61;21.17
19590;BME280;12231;42.782;23.388;2022-08-19T09:42:28;95226.00;;;44.93;20.12
19590;BME280;12231;42.782;23.388;2022-08-19T09:44:53;95221.19;;;43.62;21.72
19590;BME280;12231;42.782;23.388;2022-08-19T09:47:19;95214.03;;;41.29;23.88
19590;BME280;12231;42.782;23.388;2022-08-19T09:49:44;95214.72;;;43.09;21.53
19590;BME280;12231;42.782;23.388;2022-08-19T09:52:10;95211.59;;;44.61;21.02
19590;BME280;12231;42.782;23.388;2022-08-19T09:54:39;95202.91;;;43.76;19.82
19590;BME280;12231;42.782;23.388;2022-08-19T09:57:05;95197.66;;;43.80;22.03
19590;BME280;12231;42.782;23.388;2022-08-19T09:59:30;95204.97;;;41.57;23.60
19590;BME280;12231;42.782;23.388;2022-08-19T10:01:56;95199.03;;;42.52;22.26
19590;BME280;12231;42.782;23.388;2022-08-19T10:04:22;95197.84;;;41.80;22.77
19590;BME280;12231;42.782;23.388;2022-08-19T10:06:49;95198.00;;;40.15;24.52
19590;BME280;12231;42.782;23.388;2022-08-19T10:09:16;95191.00;;;40.66;23.32
19590;BME280;12231;42.782;23.388;2022-08-19T10:11:44;95194.19;;;41.34;22.93
19590;BME280;12231;42.782;23.388;2022-08-19T10:14:15;95191.28;;;40.88;23.50
19590;BME280;12231;42.782;23.388;2022-08-19T10:16:42;95187.81;;;41.25;23.60
19590;BME280;12231;42.782;23.388;2022-08-19T10:19:08;95188.41;;;39.26;25.49
19590;BME280;12231;42.782;23.388;2022-08-19T10:21:34;95185.03;;;39.06;25.90
19590;BME280;12231;42.782;23.388;2022-08-19T10:24:02;95184.66;;;38.64;25.59
19590;BME280;12231;42.782;23.388;2022-08-19T10:26:32;95177.75;;;39.06;26.75
19590;BME280;12231;42.782;23.388;2022-08-19T10:28:58;95183.16;;;39.01;26.21
19590;BME280;12231;42.782;23.388;2022-08-19T10:31:29;95173.00;;;38.78;27.27
19590;BME280;12231;42.782;23.388;2022-08-19T10:33:56;95166.50;;;38.84;25.88
19590;BME280;12231;42.782;23.388;2022-08-19T10:36:33;95169.50;;;39.26;25.85
19590;BME280;12231;42.782;23.388;2022-08-19T10:39:04;95170.22;;;40.09;26.04
19590;BME280;12231;42.782;23.388;2022-08-19T10:41:32;95171.38;;;40.03;24.63
19590;BME280;12231;42.782;23.388;2022-08-19T10:44:00;95157.63;;;38.84;25.95
19590;BME280;12231;42.782;23.388;2022-08-19T10:46:28;95157.78;;;38.97;25.60
19590;BME280;12231;42.782;23.388;2022-08-19T10:48:56;95164.22;;;38.48;26.38
19590;BME280;12231;42.782;23.388;2022-08-19T10:51:22;95155.63;;;38.30;27.64
19590;BME280;12231;42.782;23.388;2022-08-19T10:54:06;95152.22;;;37.65;27.45
19590;BME280;12231;42.782;23.388;2022-08-19T10:56:32;95155.72;;;37.70;28.13
19590;BME280;12231;42.782;23.388;2022-08-19T10:59:25;95150.03;;;37.97;27.12
19590;BME280;12231;42.782;23.388;2022-08-19T11:01:53;95148.13;;;38.22;27.04
19590;BME280;12231;42.782;23.388;2022-08-19T11:04:19;95153.16;;;38.59;27.02
19590;BME280;12231;42.782;23.388;2022-08-19T11:06:46;95148.72;;;37.79;28.44
19590;BME280;12231;42.782;23.388;2022-08-19T11:09:14;95145.75;;;37.86;27.74
19590;BME280;12231;42.782;23.388;2022-08-19T11:11:41;95138.78;;;37.70;27.09
19590;BME280;12231;42.782;23.388;2022-08-19T11:14:10;95148.69;;;37.44;28.03
19590;BME280;12231;42.782;23.388;2022-08-19T11:16:36;95143.88;;;37.51;28.05
19590;BME280;12231;42.782;23.388;2022-08-19T11:19:04;95136.31;;;37.78;27.98
19590;BME280;12231;42.782;23.388;2022-08-19T11:21:35;95136.06;;;37.45;27.80
19590;BME280;12231;42.782;23.388;2022-08-19T11:24:07;95137.03;;;36.78;29.16
19590;BME280;12231;42.782;23.388;2022-08-19T11:26:33;95135.53;;;37.63;28.39
19590;BME280;12231;42.782;23.388;2022-08-19T11:29:00;95132.28;;;37.91;27.80
19590;BME280;12231;42.782;23.388;2022-08-19T11:31:31;95128.25;;;37.73;27.75
19590;BME280;12231;42.782;23.388;2022-08-19T11:33:58;95126.09;;;37.70;27.92
19590;BME280;12231;42.782;23.388;2022-08-19T11:36:25;95122.06;;;37.78;27.81
19590;BME280;12231;42.782;23.388;2022-08-19T11:38:51;95121.00;;;37.79;28.44
19590;BME280;12231;42.782;23.388;2022-08-19T11:41:19;95109.13;;;37.80;27.50
19590;BME280;12231;42.782;23.388;2022-08-19T11:43:44;95103.50;;;37.21;29.12
19590;BME280;12231;42.782;23.388;2022-08-19T11:46:12;95106.94;;;36.91;28.82
19590;BME280;12231;42.782;23.388;2022-08-19T11:48:38;95113.81;;;36.57;28.99
19590;BME280;12231;42.782;23.388;2022-08-19T11:51:07;95104.72;;;36.73;28.70
19590;BME280;12231;42.782;23.388;2022-08-19T11:53:34;95097.81;;;37.12;28.91
19590;BME280;12231;42.782;23.388;2022-08-19T11:56:01;95097.84;;;37.78;27.80
19590;BME280;12231;42.782;23.388;2022-08-19T11:58:26;95099.13;;;38.00;27.96
19590;BME280;12231;42.782;23.388;2022-08-19T12:00:52;95099.16;;;37.90;27.61
19590;BME280;12231;42.782;23.388;2022-08-19T12:03:18;95101.84;;;37.90;27.84
19590;BME280;12231;42.782;23.388;2022-08-19T12:05:45;95088.94;;;37.92;27.37
19590;BME280;12231;42.782;23.388;2022-08-19T12:08:10;95081.97;;;37.41;27.82
19590;BME280;12231;42.782;23.388;2022-08-19T12:10:38;95088.94;;;37.82;27.78
19590;BME280;12231;42.782;23.388;2022-08-19T12:13:04;95087.56;;;37.85;26.96
19590;BME280;12231;42.782;23.388;2022-08-19T12:15:35;95076.94;;;38.33;26.69
19590;BME280;12231;42.782;23.388;2022-08-19T12:18:00;95085.91;;;38.73;26.73
19590;BME280;12231;42.782;23.388;2022-08-19T12:20:26;95077.03;;;38.18;26.06
19590;BME280;12231;42.782;23.388;2022-08-19T12:22:51;95070.53;;;38.19;26.50
19590;BME280;12231;42.782;23.388;2022-08-19T12:25:17;95068.50;;;37.66;27.21
19590;BME280;12231;42.782;23.388;2022-08-19T12:27:42;95067.28;;;38.22;26.11
19590;BME280;12231;42.782;23.388;2022-08-19T12:30:10;95065.09;;;38.29;26.46
19590;BME280;12231;42.782;23.388;2022-08-19T12:32:36;95060.97;;;37.48;28.15
19590;BME280;12231;42.782;23.388;2022-08-19T12:35:04;95066.09;;;37.70;26.88
19590;BME280;12231;42.782;23.388;2022-08-19T12:37:30;95067.13;;;37.79;26.98
19590;BME280;12231;42.782;23.388;2022-08-19T12:39:57;95050.91;;;38.09;26.54
19590;BME280;12231;42.782;23.388;2022-08-19T12:42:22;95059.28;;;38.02;27.02
19590;BME280;12231;42.782;23.388;2022-08-19T12:44:48;95049.84;;;37.95;26.56
19590;BME280;12231;42.782;23.388;2022-08-19T12:47:14;95051.53;;;37.66;27.38
19590;BME280;12231;42.782;23.388;2022-08-19T12:49:40;95055.59;;;37.48;26.89
19590;BME280;12231;42.782;23.388;2022-08-19T12:52:08;95061.53;;;37.00;27.95
19590;BME280;12231;42.782;23.388;2022-08-19T12:54:35;95052.63;;;36.99;28.00
19590;BME280;12231;42.782;23.388;2022-08-19T12:57:05;95056.38;;;36.83;28.63
19590;BME280;12231;42.782;23.388;2022-08-19T12:59:31;95059.06;;;36.98;28.41